createdAt,value
2018-05-24T00:00:51.287Z,17.00
2018-05-24T00:03:19.591Z,17.00
2018-05-24T00:05:47.920Z,17.10
2018-05-24T00:08:16.988Z,17.10
2018-05-24T00:10:45.309Z,17.10
2018-05-24T00:13:14.368Z,17.10
2018-05-24T00:15:42.696Z,17.10
2018-05-24T00:18:10.980Z,17.10
2018-05-24T00:20:39.308Z,17.10
2018-05-24T00:23:07.593Z,17.10
2018-05-24T00:25:35.917Z,17.10
2018-05-24T00:28:04.249Z,17.10
2018-05-24T00:30:32.578Z,17.00
2018-05-24T00:33:00.864Z,17.00
2018-05-24T00:35:29.184Z,17.00
2018-05-24T00:37:58.255Z,16.80
2018-05-24T00:40:26.559Z,16.70
2018-05-24T00:42:54.855Z,16.70
2018-05-24T00:45:23.941Z,16.60
2018-05-24T00:47:53.045Z,16.60
2018-05-24T00:50:22.200Z,16.60
2018-05-24T00:52:50.565Z,16.60
2018-05-24T00:55:30.824Z,16.60
2018-05-24T00:57:59.160Z,16.70
2018-05-24T01:00:27.551Z,16.60
2018-05-24T01:02:55.937Z,16.60
2018-05-24T01:05:24.311Z,16.50
2018-05-24T01:07:52.669Z,16.50
2018-05-24T01:10:21.009Z,16.40
2018-05-24T01:12:49.332Z,16.40
2018-05-24T01:15:18.495Z,16.30
2018-05-24T01:17:46.836Z,16.30
2018-05-24T01:20:15.176Z,16.20
2018-05-24T01:22:44.237Z,16.20
2018-05-24T01:25:12.527Z,16.10
2018-05-24T01:27:40.845Z,16.10
2018-05-24T01:30:09.891Z,16.00
2018-05-24T01:32:38.204Z,16.00
2018-05-24T01:35:06.492Z,16.00
2018-05-24T01:37:47.302Z,16.00
2018-05-24T01:40:15.583Z,16.00
2018-05-24T01:42:43.896Z,16.00
2018-05-24T01:45:12.188Z,16.00
2018-05-24T01:47:41.338Z,16.00
2018-05-24T01:50:09.723Z,16.00
2018-05-24T01:52:38.125Z,16.00
2018-05-24T01:55:06.504Z,16.00
2018-05-24T01:57:34.852Z,16.10
2018-05-24T02:00:03.165Z,16.10
2018-05-24T02:02:32.307Z,16.20
2018-05-24T02:05:00.663Z,16.10
2018-05-24T02:07:29.021Z,16.10
2018-05-24T02:09:58.146Z,16.00
2018-05-24T02:12:26.508Z,16.00
2018-05-24T02:14:54.852Z,16.00
2018-05-24T02:17:23.240Z,16.00
2018-05-24T02:19:51.525Z,16.00
2018-05-24T02:22:19.827Z,16.00
2018-05-24T02:24:48.112Z,16.00
2018-05-24T02:27:16.433Z,16.00
2018-05-24T02:29:44.726Z,16.00
2018-05-24T02:32:13.041Z,15.90
2018-05-24T02:34:41.321Z,16.00
2018-05-24T02:37:09.636Z,16.00
2018-05-24T02:39:37.927Z,16.00
2018-05-24T02:42:06.257Z,16.10
2018-05-24T02:44:34.565Z,16.20
2018-05-24T02:47:02.891Z,16.20
2018-05-24T02:49:31.952Z,16.20
2018-05-24T02:52:00.273Z,16.20
2018-05-24T02:54:28.572Z,16.20
2018-05-24T02:56:56.891Z,16.20
2018-05-24T02:59:25.179Z,16.10
2018-05-24T03:01:53.511Z,16.00
2018-05-24T03:04:21.792Z,15.90
2018-05-24T03:06:50.153Z,15.90
2018-05-24T03:09:18.489Z,15.90
2018-05-24T03:11:46.863Z,16.00
2018-05-24T03:14:15.234Z,16.00
2018-05-24T03:16:43.610Z,15.90
2018-05-24T03:19:11.973Z,15.90
2018-05-24T03:21:40.313Z,15.90
2018-05-24T03:24:08.608Z,16.00
2018-05-24T03:26:36.928Z,16.00
2018-05-24T03:29:05.233Z,16.00
2018-05-24T03:31:33.561Z,16.10
2018-05-24T03:34:01.888Z,16.00
2018-05-24T03:36:30.946Z,16.00
2018-05-24T03:38:59.269Z,16.00
2018-05-24T03:41:27.576Z,16.00
2018-05-24T03:43:55.904Z,15.90
2018-05-24T03:46:24.975Z,15.70
2018-05-24T03:48:53.292Z,15.60
2018-05-24T03:51:22.346Z,15.50
2018-05-24T03:53:50.680Z,15.50
2018-05-24T03:56:18.997Z,15.50
2018-05-24T03:58:47.330Z,15.50
2018-05-24T04:01:27.537Z,15.50
2018-05-24T04:03:55.868Z,15.40
2018-05-24T04:06:24.168Z,15.30
2018-05-24T04:08:54.148Z,15.30
2018-05-24T04:11:22.431Z,15.30
2018-05-24T04:13:50.756Z,15.40
2018-05-24T04:16:19.072Z,15.40
2018-05-24T04:18:48.169Z,15.50
2018-05-24T04:21:16.480Z,15.50
2018-05-24T04:23:44.799Z,15.60
2018-05-24T04:26:13.115Z,15.60
2018-05-24T04:28:41.452Z,15.70
2018-05-24T04:31:09.761Z,15.70
2018-05-24T04:33:38.076Z,15.80
2018-05-24T04:36:06.376Z,15.80
2018-05-24T04:38:34.697Z,15.80
2018-05-24T04:41:03.014Z,15.90
2018-05-24T04:43:31.345Z,15.90
2018-05-24T04:46:00.412Z,15.90
2018-05-24T04:48:28.737Z,15.90
2018-05-24T04:50:57.053Z,16.00
2018-05-24T04:53:25.385Z,16.00
2018-05-24T04:55:53.677Z,16.10
2018-05-24T04:58:22.008Z,16.10
2018-05-24T05:00:50.304Z,16.20
2018-05-24T05:03:19.392Z,16.20
2018-05-24T05:05:47.684Z,16.20
2018-05-24T05:08:16.089Z,16.30
2018-05-24T05:10:44.495Z,16.30
2018-05-24T05:13:12.882Z,16.30
2018-05-24T05:15:41.214Z,16.40
2018-05-24T05:18:09.563Z,16.50
2018-05-24T05:20:38.686Z,16.50
2018-05-24T05:23:07.123Z,16.50
2018-05-24T05:25:35.444Z,16.50
2018-05-24T05:28:03.771Z,16.50
2018-05-24T05:30:32.117Z,16.50
2018-05-24T05:33:01.177Z,16.60
2018-05-24T05:35:30.236Z,16.60
2018-05-24T05:37:58.569Z,16.60
2018-05-24T05:40:26.885Z,16.60
2018-05-24T05:42:55.226Z,16.70
2018-05-24T05:45:23.533Z,16.80
2018-05-24T05:47:51.824Z,16.80
2018-05-24T05:50:20.145Z,16.80
2018-05-24T05:52:49.207Z,16.90
2018-05-24T05:55:17.529Z,16.90
2018-05-24T05:57:45.865Z,17.00
2018-05-24T06:00:14.181Z,17.00
2018-05-24T06:02:42.479Z,17.00
2018-05-24T06:05:10.801Z,17.10
2018-05-24T06:07:39.089Z,17.10
2018-05-24T06:10:07.409Z,17.10
2018-05-24T06:12:35.713Z,17.20
2018-05-24T06:15:04.033Z,17.20
2018-05-24T06:17:32.354Z,17.20
2018-05-24T06:20:00.668Z,17.30
2018-05-24T06:22:29.759Z,17.30
2018-05-24T06:24:58.099Z,17.30
2018-05-24T06:27:26.400Z,17.30
2018-05-24T06:29:54.728Z,17.40
2018-05-24T06:32:23.790Z,17.60
2018-05-24T06:34:52.108Z,17.60
2018-05-24T06:37:20.496Z,17.70
2018-05-24T06:39:48.748Z,17.80
2018-05-24T06:42:17.820Z,18.00
2018-05-24T06:44:46.131Z,18.00
2018-05-24T06:47:14.448Z,18.10
2018-05-24T06:49:43.547Z,18.20
2018-05-24T06:52:11.842Z,18.20
2018-05-24T06:54:40.177Z,18.30
2018-05-24T06:57:08.477Z,18.30
2018-05-24T06:59:36.809Z,18.40
2018-05-24T07:02:05.105Z,18.40
2018-05-24T07:04:33.452Z,18.50
2018-05-24T07:07:02.521Z,18.50
2018-05-24T07:09:30.852Z,18.50
2018-05-24T07:11:59.156Z,18.60
2018-05-24T07:14:27.493Z,18.60
2018-05-24T07:16:55.793Z,18.70
2018-05-24T07:19:24.114Z,18.70
2018-05-24T07:21:52.418Z,18.80
2018-05-24T07:24:21.514Z,18.80
2018-05-24T07:26:50.601Z,18.80
2018-05-24T07:29:19.682Z,18.90
2018-05-24T07:31:47.981Z,18.80
2018-05-24T07:34:17.069Z,18.90
2018-05-24T07:36:46.132Z,19.00
2018-05-24T07:39:14.451Z,19.00
2018-05-24T07:41:43.505Z,19.10
2018-05-24T07:44:11.834Z,19.10
2018-05-24T07:46:40.142Z,19.10
2018-05-24T07:49:08.443Z,19.20
2018-05-24T07:51:36.772Z,19.30
2018-05-24T07:54:05.091Z,19.40
2018-05-24T07:56:33.422Z,19.40
2018-05-24T07:59:01.784Z,19.50
2018-05-24T08:01:31.015Z,19.60
2018-05-24T08:03:59.300Z,19.60
2018-05-24T08:06:27.669Z,19.70
2018-05-24T08:08:56.035Z,19.70
2018-05-24T08:11:24.384Z,19.80
2018-05-24T08:13:52.766Z,19.90
2018-05-24T08:16:21.935Z,20.00
2018-05-24T08:18:50.369Z,20.00
2018-05-24T08:21:18.759Z,20.10
2018-05-24T08:23:47.087Z,20.10
2018-05-24T08:26:15.488Z,20.20
2018-05-24T08:28:44.873Z,20.30
2018-05-24T08:31:13.351Z,20.30
2018-05-24T08:33:42.031Z,20.40
2018-05-24T08:36:10.437Z,20.40
2018-05-24T08:38:39.569Z,20.50
2018-05-24T08:41:08.009Z,20.50
2018-05-24T08:43:36.392Z,20.50
2018-05-24T08:46:05.558Z,20.70
2018-05-24T08:48:33.981Z,20.70
2018-05-24T08:51:03.104Z,20.70
2018-05-24T08:53:31.437Z,20.70
2018-05-24T08:56:00.613Z,20.60
2018-05-24T08:58:28.992Z,20.60
2018-05-24T09:00:57.399Z,20.60
2018-05-24T09:03:26.519Z,20.70
2018-05-24T09:05:54.945Z,20.70
2018-05-24T09:08:23.308Z,20.80
2018-05-24T09:10:51.753Z,20.90
2018-05-24T09:13:20.184Z,20.90
2018-05-24T09:15:48.584Z,20.90
2018-05-24T09:18:16.912Z,21.00
2018-05-24T09:20:45.297Z,21.10
2018-05-24T09:23:13.590Z,21.20
2018-05-24T09:25:41.924Z,21.30
2018-05-24T09:28:10.990Z,21.40
2018-05-24T09:30:39.317Z,21.40
2018-05-24T09:33:07.614Z,21.50
2018-05-24T09:35:36.016Z,21.50
2018-05-24T09:38:05.157Z,21.60
2018-05-24T09:40:33.624Z,21.60
2018-05-24T09:43:10.633Z,21.70
2018-05-24T09:45:45.038Z,21.80
2018-05-24T09:48:27.486Z,21.80
2018-05-24T09:50:55.797Z,21.70
2018-05-24T09:53:24.092Z,21.80
2018-05-24T09:55:53.237Z,21.90
2018-05-24T09:58:21.534Z,21.80
2018-05-24T10:00:50.652Z,21.90
2018-05-24T10:03:18.991Z,22.00
2018-05-24T10:05:47.321Z,22.20
2018-05-24T10:08:16.372Z,22.50
2018-05-24T10:10:44.693Z,22.50
2018-05-24T10:13:12.980Z,22.60
2018-05-24T10:15:41.344Z,22.70
2018-05-24T10:18:09.660Z,22.70
2018-05-24T10:20:37.988Z,22.70
2018-05-24T10:23:07.054Z,22.50
2018-05-24T10:25:35.390Z,22.50
2018-05-24T10:28:03.723Z,22.50
2018-05-24T10:30:32.157Z,22.60
2018-05-24T10:33:00.513Z,22.60
2018-05-24T10:35:29.099Z,22.70
2018-05-24T10:38:01.273Z,22.60
2018-05-24T10:40:29.648Z,22.60
2018-05-24T10:42:58.024Z,22.60
2018-05-24T10:45:26.347Z,22.50
2018-05-24T10:47:54.751Z,22.50
2018-05-24T10:50:23.113Z,22.50
2018-05-24T10:52:51.476Z,22.50
2018-05-24T10:55:19.823Z,22.60
2018-05-24T10:57:48.218Z,22.70
2018-05-24T11:00:16.576Z,22.80
2018-05-24T11:02:44.945Z,23.00
2018-05-24T11:05:13.293Z,23.00
2018-05-24T11:07:41.668Z,23.00
2018-05-24T11:10:10.013Z,22.90
2018-05-24T11:12:38.368Z,22.80
2018-05-24T11:15:06.782Z,22.80
2018-05-24T11:17:35.212Z,22.90
2018-05-24T11:20:03.513Z,23.00
2018-05-24T11:22:31.845Z,23.10
2018-05-24T11:25:00.137Z,23.10
2018-05-24T11:27:28.461Z,23.10
2018-05-24T11:29:56.756Z,23.10
2018-05-24T11:32:25.117Z,23.10
2018-05-24T11:34:53.406Z,23.10
2018-05-24T11:37:21.837Z,23.10
2018-05-24T11:39:50.056Z,23.20
2018-05-24T11:42:18.392Z,23.40
2018-05-24T11:44:47.452Z,23.60
2018-05-24T11:47:15.773Z,23.60
2018-05-24T11:49:44.833Z,23.70
2018-05-24T11:52:13.253Z,23.70
2018-05-24T11:54:41.619Z,23.70
2018-05-24T11:57:10.745Z,23.90
2018-05-24T11:59:39.128Z,23.90
2018-05-24T12:02:07.521Z,24.00
2018-05-24T12:04:35.884Z,24.00
2018-05-24T12:07:04.316Z,24.00
2018-05-24T12:09:32.663Z,23.90
2018-05-24T12:12:01.802Z,24.10
2018-05-24T12:14:30.932Z,24.10
2018-05-24T12:16:59.304Z,24.10
2018-05-24T12:19:27.611Z,24.10
2018-05-24T12:21:55.933Z,24.20
2018-05-24T12:24:24.231Z,24.30
2018-05-24T12:26:52.565Z,24.40
2018-05-24T12:29:20.871Z,24.70
2018-05-24T12:31:49.972Z,24.70
2018-05-24T12:34:19.039Z,24.30
2018-05-24T12:36:47.357Z,24.30
2018-05-24T12:39:15.645Z,24.10
2018-05-24T12:41:43.982Z,24.00
2018-05-24T12:44:12.256Z,24.00
2018-05-24T12:46:40.544Z,24.10
2018-05-24T12:49:08.869Z,24.30
2018-05-24T12:51:37.171Z,24.40
2018-05-24T12:54:05.492Z,24.20
2018-05-24T12:56:34.539Z,24.10
2018-05-24T12:59:02.856Z,24.10
2018-05-24T13:01:31.931Z,24.40
2018-05-24T13:04:00.243Z,24.30
2018-05-24T13:06:28.538Z,24.40
2018-05-24T13:08:56.866Z,24.30
2018-05-24T13:11:25.159Z,24.30
2018-05-24T13:13:53.478Z,24.30
2018-05-24T13:16:21.761Z,24.10
2018-05-24T13:18:50.085Z,24.10
2018-05-24T13:21:18.392Z,24.10
2018-05-24T13:23:46.733Z,24.10
2018-05-24T13:26:15.020Z,24.10
2018-05-24T13:28:43.351Z,24.20
2018-05-24T13:31:11.658Z,24.20
2018-05-24T13:33:39.980Z,24.20
2018-05-24T13:36:08.290Z,24.20
2018-05-24T13:38:36.609Z,24.20
2018-05-24T13:41:04.920Z,24.20
2018-05-24T13:43:33.266Z,24.10
2018-05-24T13:46:02.319Z,24.10
2018-05-24T13:48:30.620Z,24.10
2018-05-24T13:50:58.908Z,24.10
2018-05-24T13:53:27.217Z,24.10
2018-05-24T13:55:55.507Z,24.10
2018-05-24T13:58:23.820Z,24.10
2018-05-24T14:00:52.122Z,24.10
2018-05-24T14:03:21.235Z,24.10
2018-05-24T14:05:50.280Z,24.10
2018-05-24T14:08:18.719Z,24.10
2018-05-24T14:10:47.012Z,24.20
2018-05-24T14:13:15.343Z,24.40
2018-05-24T14:15:47.009Z,24.70
2018-05-24T14:18:15.557Z,24.70
2018-05-24T14:20:43.883Z,24.90
2018-05-24T14:23:12.963Z,25.30
2018-05-24T14:25:42.016Z,25.30
2018-05-24T14:28:10.339Z,25.30
2018-05-24T14:30:39.406Z,25.20
2018-05-24T14:33:07.740Z,25.20
2018-05-24T14:35:36.032Z,25.30
2018-05-24T14:38:04.374Z,25.30
2018-05-24T14:40:33.469Z,25.30
2018-05-24T14:43:02.527Z,25.40
2018-05-24T14:45:30.852Z,25.40
2018-05-24T14:47:59.137Z,25.40
2018-05-24T14:50:27.497Z,25.50
2018-05-24T14:52:56.550Z,25.80
2018-05-24T14:55:24.861Z,25.80
2018-05-24T14:57:53.146Z,26.00
2018-05-24T15:00:22.226Z,26.50
2018-05-24T15:02:50.523Z,26.40
2018-05-24T15:05:19.612Z,26.70
2018-05-24T15:07:48.665Z,26.50
2018-05-24T15:10:16.980Z,26.50
2018-05-24T15:12:46.035Z,25.70
2018-05-24T15:15:14.343Z,25.70
2018-05-24T15:17:42.636Z,25.30
2018-05-24T15:20:11.704Z,25.10
2018-05-24T15:22:39.999Z,25.10
2018-05-24T15:25:08.315Z,24.90
2018-05-24T15:27:36.627Z,24.80
2018-05-24T15:30:04.960Z,24.70
2018-05-24T15:32:33.245Z,24.70
2018-05-24T15:35:01.571Z,24.70
2018-05-24T15:37:29.852Z,24.60
2018-05-24T15:39:58.175Z,24.60
2018-05-24T15:42:26.466Z,24.50
2018-05-24T15:44:54.803Z,24.40
2018-05-24T15:47:23.877Z,24.20
2018-05-24T15:49:52.297Z,24.10
2018-05-24T15:52:20.667Z,24.10
2018-05-24T15:54:49.020Z,24.10
2018-05-24T15:57:17.369Z,24.00
2018-05-24T15:59:45.675Z,23.90
2018-05-24T16:02:13.969Z,23.80
2018-05-24T16:04:43.053Z,23.60
2018-05-24T16:07:11.346Z,23.60
2018-05-24T16:09:39.650Z,23.50
2018-05-24T16:12:07.932Z,23.30
2018-05-24T16:14:36.243Z,22.90
2018-05-24T16:17:04.520Z,22.40
2018-05-24T16:19:32.824Z,22.00
2018-05-24T16:22:01.128Z,21.70
2018-05-24T16:24:29.448Z,21.40
2018-05-24T16:26:57.740Z,21.20
2018-05-24T16:29:26.053Z,21.00
2018-05-24T16:31:54.340Z,20.90
2018-05-24T16:34:22.664Z,20.80
2018-05-24T16:36:50.952Z,20.70
2018-05-24T16:39:19.235Z,20.50
2018-05-24T16:41:47.544Z,20.30
2018-05-24T16:44:15.851Z,20.20
2018-05-24T16:46:44.160Z,20.20
2018-05-24T16:49:12.450Z,20.20
2018-05-24T16:51:41.541Z,20.40
2018-05-24T16:54:09.886Z,20.40
2018-05-24T16:56:38.205Z,20.40
2018-05-24T17:02:02.256Z,20.10
2018-05-24T17:04:30.554Z,20.00
2018-05-24T17:06:58.874Z,19.80
2018-05-24T17:09:27.172Z,19.70
2018-05-24T17:11:55.492Z,19.50
2018-05-24T17:14:23.791Z,19.40
2018-05-24T17:16:52.118Z,19.20
2018-05-24T17:19:20.424Z,19.00
2018-05-24T17:21:48.761Z,18.80
2018-05-24T17:24:17.084Z,18.90
2018-05-24T17:26:45.401Z,19.00
2018-05-24T17:29:14.455Z,19.10
2018-05-24T17:31:42.772Z,19.10
2018-05-24T17:34:11.075Z,19.10
2018-05-24T17:36:39.403Z,18.90
2018-05-24T17:39:07.695Z,18.60
2018-05-24T17:41:36.785Z,18.20
2018-05-24T17:44:05.065Z,18.20
2018-05-24T17:46:34.132Z,18.30
2018-05-24T17:49:02.408Z,18.30
2018-05-24T17:51:30.722Z,18.40
2018-05-24T17:53:59.789Z,18.90
2018-05-24T17:56:28.113Z,18.90
2018-05-24T17:58:56.401Z,19.10
2018-05-24T18:01:24.712Z,19.30
2018-05-24T18:03:52.991Z,19.40
2018-05-24T18:06:21.295Z,19.60
2018-05-24T18:08:50.358Z,19.70
2018-05-24T18:11:18.672Z,19.70
2018-05-24T18:13:47.720Z,19.70
2018-05-24T18:16:16.033Z,19.70
2018-05-24T18:18:44.324Z,19.60
2018-05-24T18:21:13.457Z,19.60
2018-05-24T18:23:42.468Z,19.60
2018-05-24T18:26:10.788Z,19.70
2018-05-24T18:28:39.840Z,19.80
2018-05-24T18:31:08.149Z,19.80
2018-05-24T18:33:36.457Z,19.90
2018-05-24T18:36:04.865Z,19.90
2018-05-24T18:38:33.879Z,19.90
2018-05-24T18:41:02.188Z,19.90
2018-05-24T18:43:31.256Z,20.00
2018-05-24T18:45:59.576Z,20.00
2018-05-24T18:48:27.879Z,19.90
2018-05-24T18:50:56.185Z,19.90
2018-05-24T18:53:24.480Z,19.80
2018-05-24T18:55:52.884Z,19.70
2018-05-24T18:58:21.214Z,19.60
2018-05-24T19:00:49.622Z,19.50
2018-05-24T19:03:17.981Z,19.50
2018-05-24T19:05:46.368Z,19.40
2018-05-24T19:08:14.743Z,19.40
2018-05-24T19:10:43.162Z,19.40
2018-05-24T19:13:11.552Z,19.40
2018-05-24T19:15:39.898Z,19.30
2018-05-24T19:18:09.054Z,19.30
2018-05-24T19:20:37.400Z,19.30
2018-05-24T19:23:05.731Z,19.30
2018-05-24T19:25:34.023Z,19.20
2018-05-24T19:28:02.344Z,19.20
2018-05-24T19:30:30.623Z,19.10
2018-05-24T19:32:58.940Z,19.10
2018-05-24T19:35:27.238Z,19.00
2018-05-24T19:37:56.329Z,18.90
2018-05-24T19:40:24.612Z,18.90
2018-05-24T19:42:53.706Z,18.80
2018-05-24T19:45:22.768Z,18.70
2018-05-24T19:47:51.096Z,18.60
2018-05-24T19:50:19.391Z,18.60
2018-05-24T19:52:47.734Z,18.50
2018-05-24T19:55:16.804Z,18.50
2018-05-24T19:57:45.120Z,18.50
2018-05-24T20:00:14.180Z,18.50
2018-05-24T20:02:42.510Z,18.50
2018-05-24T20:05:10.801Z,18.60
2018-05-24T20:07:39.137Z,18.50
2018-05-24T20:10:07.483Z,18.50
2018-05-24T20:12:35.823Z,18.40
2018-05-24T20:15:04.112Z,18.40
2018-05-24T20:17:32.427Z,18.30
2018-05-24T20:20:00.742Z,18.30
2018-05-24T20:22:29.089Z,18.20
2018-05-24T20:24:57.395Z,18.20
2018-05-24T20:27:25.717Z,18.20
2018-05-24T20:29:54.072Z,18.20
2018-05-24T20:32:22.353Z,18.20
2018-05-24T20:34:50.646Z,18.20
2018-05-24T20:37:18.960Z,18.10
2018-05-24T20:39:48.022Z,18.00
2018-05-24T20:42:16.360Z,17.90
2018-05-24T20:44:44.701Z,17.90
2018-05-24T20:47:12.996Z,17.90
2018-05-24T20:49:42.068Z,17.80
2018-05-24T20:52:10.388Z,17.80
2018-05-24T20:54:38.689Z,17.80
2018-05-24T20:57:07.012Z,17.80
2018-05-24T20:59:35.323Z,17.70
2018-05-24T21:02:03.652Z,17.70
2018-05-24T21:04:31.953Z,17.70
2018-05-24T21:07:01.042Z,17.60
2018-05-24T21:09:30.103Z,17.60
2018-05-24T21:11:58.388Z,17.60
2018-05-24T21:14:26.728Z,17.60
2018-05-24T21:16:55.032Z,17.60
2018-05-24T21:19:23.363Z,17.60
2018-05-24T21:21:52.423Z,17.70
2018-05-24T21:24:20.744Z,17.60
2018-05-24T21:26:49.036Z,17.70
2018-05-24T21:29:17.356Z,17.60
2018-05-24T21:31:45.639Z,17.40
2018-05-24T21:34:13.970Z,17.30
2018-05-24T21:36:42.289Z,17.30
2018-05-24T21:39:10.625Z,17.20
2018-05-24T21:41:38.924Z,17.30
2018-05-24T21:44:07.243Z,17.20
2018-05-24T21:46:35.568Z,17.30
2018-05-24T21:49:03.884Z,17.30
2018-05-24T21:51:32.181Z,17.40
2018-05-24T21:54:01.260Z,17.40
2018-05-24T21:56:29.553Z,17.40
2018-05-24T21:58:58.649Z,17.50
2018-05-24T22:01:26.952Z,17.50
2018-05-24T22:03:55.272Z,17.50
2018-05-24T22:06:24.344Z,17.50
2018-05-24T22:08:52.659Z,17.50
2018-05-24T22:11:20.954Z,17.50
2018-05-24T22:13:50.045Z,17.50
2018-05-24T22:16:19.148Z,17.60
2018-05-24T22:18:47.452Z,17.60
2018-05-24T22:21:15.755Z,17.60
2018-05-24T22:23:44.084Z,17.60
2018-05-24T22:26:12.393Z,17.60
2018-05-24T22:28:40.707Z,17.50
2018-05-24T22:31:08.994Z,17.40
2018-05-24T22:33:37.324Z,17.20
2018-05-24T22:36:05.629Z,17.30
2018-05-24T22:38:33.952Z,17.20
2018-05-24T22:41:03.030Z,17.30
2018-05-24T22:43:32.124Z,17.20
2018-05-24T22:46:00.408Z,17.20
2018-05-24T22:48:28.763Z,17.10
2018-05-24T22:50:57.056Z,17.00
2018-05-24T22:53:25.351Z,16.90
2018-05-24T22:55:54.449Z,16.90
2018-05-24T22:58:23.537Z,17.00
2018-05-24T23:00:52.625Z,17.00
2018-05-24T23:03:21.699Z,17.10
2018-05-24T23:05:50.028Z,17.10
2018-05-24T23:08:18.329Z,17.10
2018-05-24T23:10:46.647Z,17.10
2018-05-24T23:13:15.737Z,17.10
2018-05-24T23:15:44.061Z,17.10
2018-05-24T23:18:12.348Z,17.10
2018-05-24T23:20:40.677Z,17.10
2018-05-24T23:23:09.743Z,17.00
2018-05-24T23:25:38.055Z,16.90
2018-05-24T23:28:07.132Z,16.90
2018-05-24T23:30:35.460Z,16.90
2018-05-24T23:33:03.761Z,16.90
2018-05-24T23:35:32.097Z,16.90
2018-05-24T23:38:00.395Z,16.80
2018-05-24T23:40:28.723Z,16.70
2018-05-24T23:42:57.012Z,16.70
2018-05-24T23:45:26.153Z,16.60
2018-05-24T23:47:54.627Z,16.50
2018-05-24T23:50:23.021Z,16.50
2018-05-24T23:52:51.416Z,16.50
2018-05-24T23:55:19.810Z,16.50
2018-05-24T23:57:48.208Z,16.60
